Time,TemperatureF,DewpointF,PressureIn,WindDirection,WindDirectionDegrees,WindSpeedMPH,WindSpeedGustMPH,Humidity,HourlyPrecipIn,Conditions,Clouds,dailyrainin,SoftwareType,DateUTC
2013-06-06 00:02:00,57.0,25.0,-100.00,SSW,193,1.0,2.0,29,-99.99,,,-99.99,,2013-06-06 06:02:00,
2013-06-06 00:12:00,58.0,25.0,-100.00,SSE,154,2.0,3.0,28,-99.99,,,-99.99,,2013-06-06 06:12:00,
2013-06-06 00:21:00,58.0,25.0,-100.00,SW,235,0.0,1.0,28,-99.99,,,-99.99,,2013-06-06 06:21:00,
2013-06-06 00:32:00,59.0,23.0,-100.00,SSE,149,3.0,4.0,25,-99.99,,,-99.99,,2013-06-06 06:32:00,
2013-06-06 00:42:00,58.0,24.0,-100.00,SW,230,1.0,2.0,26,-99.99,,,-99.99,,2013-06-06 06:42:00,
2013-06-06 00:52:00,57.0,23.0,-100.00,SE,125,1.0,2.0,26,-99.99,,,-99.99,,2013-06-06 06:52:00,
2013-06-06 01:02:00,57.0,23.0,-100.00,East,82,3.0,4.0,27,-99.99,,,-99.99,,2013-06-06 07:02:00,
2013-06-06 01:12:00,58.0,23.0,-100.00,East,87,4.0,7.0,25,-99.99,,,-99.99,,2013-06-06 07:12:00,
2013-06-06 01:22:00,58.0,22.0,-100.00,East,81,3.0,4.0,25,-99.99,,,-99.99,,2013-06-06 07:22:00,
2013-06-06 01:32:00,59.0,22.0,-100.00,NE,45,5.0,7.0,24,-99.99,,,-99.99,,2013-06-06 07:32:00,
2013-06-06 01:42:00,61.0,20.0,-100.00,NNE,30,8.0,12.0,20,-99.99,,,-99.99,,2013-06-06 07:42:00,
2013-06-06 01:52:00,62.0,20.0,-100.00,NNE,23,9.0,13.0,19,-99.99,,,-99.99,,2013-06-06 07:52:00,
2013-06-06 02:02:00,62.0,20.0,-100.00,NNE,31,8.0,13.0,19,-99.99,,,-99.99,,2013-06-06 08:02:00,
2013-06-06 02:12:00,59.0,20.0,-100.00,SE,127,4.0,6.0,22,-99.99,,,-99.99,,2013-06-06 08:12:00,
2013-06-06 02:21:00,59.0,21.0,-100.00,ENE,67,1.0,4.0,23,-99.99,,,-99.99,,2013-06-06 08:21:00,
2013-06-06 02:32:00,57.0,20.0,-100.00,ENE,60,0.0,1.0,23,-99.99,,,-99.99,,2013-06-06 08:32:00,
2013-06-06 02:42:00,57.0,19.0,-100.00,East,100,0.0,3.0,22,-99.99,,,-99.99,,2013-06-06 08:42:00,
2013-06-06 02:52:00,58.0,18.0,-100.00,ESE,104,3.0,3.0,21,-99.99,,,-99.99,,2013-06-06 08:52:00,
2013-06-06 03:01:00,57.0,19.0,-100.00,ESE,107,2.0,3.0,22,-99.99,,,-99.99,,2013-06-06 09:01:00,
2013-06-06 03:12:00,57.0,19.0,-100.00,SE,130,2.0,3.0,22,-99.99,,,-99.99,,2013-06-06 09:12:00,
2013-06-06 03:22:00,59.0,20.0,-100.00,SSE,147,4.0,4.0,21,-99.99,,,-99.99,,2013-06-06 09:22:00,
2013-06-06 03:32:00,60.0,19.0,-100.00,SSE,159,4.0,4.0,20,-99.99,,,-99.99,,2013-06-06 09:32:00,
2013-06-06 03:43:00,61.0,19.0,-100.00,SSE,158,2.0,4.0,19,-99.99,,,-99.99,,2013-06-06 09:43:00,
2013-06-06 03:53:00,60.0,20.0,-100.00,SSE,159,3.0,5.0,20,-99.99,,,-99.99,,2013-06-06 09:53:00,
2013-06-06 04:02:00,58.0,21.0,-100.00,WNW,287,1.0,4.0,23,-99.99,,,-99.99,,2013-06-06 10:02:00,
2013-06-06 04:12:00,56.0,22.0,-100.00,WSW,242,2.0,3.0,26,-99.99,,,-99.99,,2013-06-06 10:12:00,
2013-06-06 04:22:00,57.0,23.0,-100.00,South,172,0.0,2.0,26,-99.99,,,-99.99,,2013-06-06 10:22:00,
2013-06-06 04:33:00,58.0,24.0,-100.00,SSE,149,0.0,2.0,27,-99.99,,,-99.99,,2013-06-06 10:33:00,
2013-06-06 04:42:00,58.0,24.0,-100.00,NW,307,2.0,4.0,27,-99.99,,,-99.99,,2013-06-06 10:42:00,
2013-06-06 04:52:00,59.0,25.0,-100.00,SSW,198,3.0,5.0,26,-99.99,,,-99.99,,2013-06-06 10:52:00,
2013-06-06 05:02:00,58.0,25.0,-100.00,SSE,158,4.0,5.0,28,-99.99,,,-99.99,,2013-06-06 11:02:00,
2013-06-06 05:12:00,54.0,24.0,-100.00,NNW,336,3.0,4.0,31,-99.99,,,-99.99,,2013-06-06 11:12:00,
2013-06-06 05:22:00,53.0,25.0,-100.00,WNW,302,3.0,4.0,33,-99.99,,,-99.99,,2013-06-06 11:22:00,
2013-06-06 05:32:00,54.0,26.0,-100.00,SSW,208,3.0,4.0,33,-99.99,,,-99.99,,2013-06-06 11:32:00,
2013-06-06 05:42:00,53.0,26.0,-100.00,West,269,1.0,3.0,35,-99.99,,,-99.99,,2013-06-06 11:42:00,
2013-06-06 05:52:00,53.0,25.0,-100.00,West,265,1.0,3.0,34,-99.99,,,-99.99,,2013-06-06 11:52:00,
2013-06-06 06:02:00,54.0,26.0,-100.00,West,260,3.0,4.0,34,-99.99,,,-99.99,,2013-06-06 12:02:00,
2013-06-06 06:12:00,51.0,27.0,-100.00,West,261,3.0,3.0,39,-99.99,,,-99.99,,2013-06-06 12:12:00,
2013-06-06 06:22:00,51.0,27.0,-100.00,WSW,255,3.0,4.0,39,-99.99,,,-99.99,,2013-06-06 12:22:00,
2013-06-06 06:32:00,52.0,27.0,-100.00,WSW,250,3.0,4.0,37,-99.99,,,-99.99,,2013-06-06 12:32:00,
2013-06-06 06:42:00,53.0,26.0,-100.00,West,260,3.0,3.0,34,-99.99,,,-99.99,,2013-06-06 12:42:00,
2013-06-06 07:02:00,54.0,27.0,-100.00,WSW,249,2.0,2.0,34,-99.99,,,-99.99,,2013-06-06 13:02:00,
2013-06-06 07:12:00,56.0,28.0,-100.00,WNW,285,2.0,2.0,34,-99.99,,,-99.99,,2013-06-06 13:12:00,
2013-06-06 07:22:00,57.0,30.0,-100.00,WSW,241,2.0,2.0,36,-99.99,,,-99.99,,2013-06-06 13:22:00,
2013-06-06 07:32:00,59.0,29.0,-100.00,SW,233,1.0,3.0,32,-99.99,,,-99.99,,2013-06-06 13:32:00,
2013-06-06 07:42:00,62.0,28.0,-100.00,North,0,0.0,1.0,28,-99.99,,,-99.99,,2013-06-06 13:42:00,
2013-06-06 07:52:00,63.0,30.0,-100.00,SSE,151,0.0,1.0,29,-99.99,,,-99.99,,2013-06-06 13:52:00,
2013-06-06 08:02:00,63.0,30.0,-100.00,SE,128,1.0,1.0,29,-99.99,,,-99.99,,2013-06-06 14:02:00,
2013-06-06 08:12:00,64.0,29.0,-100.00,East,85,2.0,3.0,26,-99.99,,,-99.99,,2013-06-06 14:12:00,
2013-06-06 08:22:00,65.0,27.0,-100.00,East,90,1.0,2.0,23,-99.99,,,-99.99,,2013-06-06 14:22:00,
2013-06-06 08:32:00,67.0,27.0,-100.00,SE,136,0.0,2.0,22,-99.99,,,-99.99,,2013-06-06 14:32:00,
2013-06-06 08:42:00,68.0,26.0,-100.00,East,96,1.0,2.0,20,-99.99,,,-99.99,,2013-06-06 14:42:00,
2013-06-06 08:52:00,68.0,28.0,-100.00,East,85,1.0,4.0,21,-99.99,,,-99.99,,2013-06-06 14:52:00,
2013-06-06 09:02:00,68.0,28.0,-100.00,East,85,1.0,4.0,21,-99.99,,,-99.99,,2013-06-06 15:02:00,
2013-06-06 09:12:00,69.0,27.0,-100.00,NE,49,0.0,2.0,21,-99.99,,,-99.99,,2013-06-06 15:12:00,
2013-06-06 09:22:00,69.0,27.0,-100.00,NE,49,0.0,2.0,21,-99.99,,,-99.99,,2013-06-06 15:22:00,
2013-06-06 09:32:00,69.0,27.0,-100.00,NE,49,0.0,2.0,21,-99.99,,,-99.99,,2013-06-06 15:32:00,
2013-06-06 09:43:00,69.0,27.0,-100.00,NE,49,0.0,2.0,21,-99.99,,,-99.99,,2013-06-06 15:43:00,
2013-06-06 09:52:00,67.0,30.0,-100.00,East,98,6.0,7.0,24,-99.99,,,-99.99,,2013-06-06 15:52:00,
2013-06-06 10:03:00,67.0,28.0,-100.00,East,97,5.0,8.0,23,-99.99,,,-99.99,,2013-06-06 16:03:00,
2013-06-06 10:12:00,68.0,28.0,-100.00,ENE,77,5.0,9.0,22,-99.99,,,-99.99,,2013-06-06 16:12:00,
2013-06-06 10:22:00,68.0,28.0,-100.00,ESE,108,4.0,7.0,22,-99.99,,,-99.99,,2013-06-06 16:22:00,
2013-06-06 10:33:00,69.0,29.0,-100.00,ENE,66,9.0,11.0,22,-99.99,,,-99.99,,2013-06-06 16:33:00,
2013-06-06 10:43:00,69.0,30.0,-100.00,East,88,10.0,12.0,23,-99.99,,,-99.99,,2013-06-06 16:43:00,
2013-06-06 10:52:00,69.0,29.0,-100.00,East,88,7.0,8.0,22,-99.99,,,-99.99,,2013-06-06 16:52:00,
2013-06-06 11:02:00,69.0,28.0,-100.00,NE,48,7.0,13.0,21,-99.99,,,-99.99,,2013-06-06 17:02:00,
2013-06-06 11:12:00,69.0,29.0,-100.00,North,7,4.0,8.0,22,-99.99,,,-99.99,,2013-06-06 17:12:00,
2013-06-06 11:22:00,69.0,29.0,-100.00,ENE,58,11.0,17.0,22,-99.99,,,-99.99,,2013-06-06 17:22:00,
2013-06-06 11:32:00,69.0,29.0,-100.00,ENE,58,11.0,17.0,22,-99.99,,,-99.99,,2013-06-06 17:32:00,
2013-06-06 11:42:00,70.0,29.0,-100.00,West,274,4.0,9.0,22,-99.99,,,-99.99,,2013-06-06 17:42:00,
2013-06-06 11:52:00,70.0,29.0,-100.00,West,274,4.0,9.0,22,-99.99,,,-99.99,,2013-06-06 17:52:00,
2013-06-06 12:02:00,71.0,31.0,-100.00,ENE,66,11.0,13.0,22,-99.99,,,-99.99,,2013-06-06 18:02:00,
2013-06-06 12:12:00,70.0,29.0,-100.00,ENE,62,7.0,14.0,20,-99.99,,,-99.99,,2013-06-06 18:12:00,
2013-06-06 12:22:00,72.0,31.0,-100.00,ENE,70,9.0,14.0,21,-99.99,,,-99.99,,2013-06-06 18:22:00,
2013-06-06 12:33:00,72.0,31.0,-100.00,ENE,70,9.0,14.0,21,-99.99,,,-99.99,,2013-06-06 18:33:00,
2013-06-06 12:42:00,72.0,31.0,-100.00,SE,128,7.0,11.0,21,-99.99,,,-99.99,,2013-06-06 18:42:00,
2013-06-06 12:52:00,73.0,30.0,-100.00,ESE,108,7.0,10.0,20,-99.99,,,-99.99,,2013-06-06 18:52:00,
2013-06-06 13:02:00,73.0,28.0,-100.00,SE,146,4.0,11.0,18,-99.99,,,-99.99,,2013-06-06 19:02:00,
2013-06-06 13:12:00,73.0,28.0,-100.00,ESE,106,6.0,11.0,18,-99.99,,,-99.99,,2013-06-06 19:12:00,
2013-06-06 13:23:00,74.0,26.0,-100.00,SSE,166,6.0,15.0,16,-99.99,,,-99.99,,2013-06-06 19:23:00,
2013-06-06 13:32:00,74.0,25.0,-100.00,NNW,346,6.0,10.0,15,-99.99,,,-99.99,,2013-06-06 19:32:00,
2013-06-06 13:42:00,74.0,23.0,-100.00,WNW,302,4.0,9.0,14,-99.99,,,-99.99,,2013-06-06 19:42:00,
2013-06-06 13:52:00,74.0,23.0,-100.00,WNW,302,4.0,9.0,14,-99.99,,,-99.99,,2013-06-06 19:52:00,
2013-06-06 14:02:00,75.0,24.0,-100.00,WNW,295,15.0,17.0,14,-99.99,,,-99.99,,2013-06-06 20:02:00,
2013-06-06 14:12:00,74.0,22.0,-100.00,NNE,18,8.0,16.0,14,-99.99,,,-99.99,,2013-06-06 20:12:00,
2013-06-06 14:22:00,75.0,23.0,-100.00,West,274,1.0,4.0,14,-99.99,,,-99.99,,2013-06-06 20:22:00,
2013-06-06 14:32:00,75.0,23.0,-100.00,West,263,6.0,10.0,14,-99.99,,,-99.99,,2013-06-06 20:32:00,
2013-06-06 14:42:00,75.0,23.0,-100.00,West,270,13.0,18.0,14,-99.99,,,-99.99,,2013-06-06 20:42:00,
2013-06-06 14:52:00,76.0,23.0,-100.00,West,263,10.0,16.0,13,-99.99,,,-99.99,,2013-06-06 20:52:00,
2013-06-06 15:12:00,75.0,20.0,-100.00,NE,35,13.0,22.0,12,-99.99,,,-99.99,,2013-06-06 21:12:00,
2013-06-06 15:22:00,75.0,23.0,-100.00,NW,313,9.0,13.0,14,-99.99,,,-99.99,,2013-06-06 21:22:00,
2013-06-06 15:33:00,76.0,22.0,-100.00,NW,323,11.0,19.0,13,-99.99,,,-99.99,,2013-06-06 21:33:00,
2013-06-06 15:43:00,77.0,22.0,-100.00,NNE,28,8.0,17.0,12,-99.99,,,-99.99,,2013-06-06 21:43:00,
2013-06-06 15:53:00,76.0,23.0,-100.00,ENE,78,3.0,11.0,13,-99.99,,,-99.99,,2013-06-06 21:53:00,
2013-06-06 16:02:00,77.0,25.0,-100.00,NE,47,14.0,19.0,14,-99.99,,,-99.99,,2013-06-06 22:02:00,
2013-06-06 16:12:00,77.0,24.0,-100.00,NE,55,21.0,23.0,13,-99.99,,,-99.99,,2013-06-06 22:12:00,
2013-06-06 16:22:00,76.0,23.0,-100.00,NE,44,8.0,15.0,13,-99.99,,,-99.99,,2013-06-06 22:22:00,
2013-06-06 16:33:00,77.0,22.0,-100.00,NE,53,15.0,22.0,12,-99.99,,,-99.99,,2013-06-06 22:33:00,
2013-06-06 16:43:00,76.0,24.0,-100.00,ENE,62,6.0,13.0,14,-99.99,,,-99.99,,2013-06-06 22:43:00,
2013-06-06 16:52:00,76.0,25.0,-100.00,East,80,11.0,18.0,15,-99.99,,,-99.99,,2013-06-06 22:52:00,
2013-06-06 17:02:00,77.0,24.0,-100.00,NNW,336,4.0,14.0,14,-99.99,,,-99.99,,2013-06-06 23:02:00,
2013-06-06 17:12:00,77.0,25.0,-100.00,NE,37,7.0,13.0,14,-99.99,,,-99.99,,2013-06-06 23:12:00,
2013-06-06 17:22:00,78.0,25.0,-100.00,NW,320,16.0,29.0,13,-99.99,,,-99.99,,2013-06-06 23:22:00,
2013-06-06 17:33:00,76.0,22.0,-100.00,ENE,71,11.0,17.0,13,-99.99,,,-99.99,,2013-06-06 23:33:00,
2013-06-06 17:42:00,77.0,31.0,-100.00,ENE,75,15.0,18.0,19,-99.99,,,-99.99,,2013-06-06 23:42:00,
2013-06-06 17:52:00,76.0,29.0,-100.00,ENE,72,15.0,19.0,18,-99.99,,,-99.99,,2013-06-06 23:52:00,
2013-06-06 18:02:00,76.0,26.0,-100.00,ENE,59,12.0,15.0,15,-99.99,,,-99.99,,2013-06-07 00:02:00,
2013-06-06 18:12:00,76.0,28.0,-100.00,ENE,63,9.0,14.0,17,-99.99,,,-99.99,,2013-06-07 00:12:00,
2013-06-06 18:21:00,75.0,31.0,-100.00,East,80,13.0,18.0,19,-99.99,,,-99.99,,2013-06-07 00:21:00,
2013-06-06 18:32:00,75.0,31.0,-100.00,East,80,13.0,18.0,19,-99.99,,,-99.99,,2013-06-07 00:32:00,
2013-06-06 18:42:00,75.0,26.0,-100.00,ESE,119,8.0,13.0,16,-99.99,,,-99.99,,2013-06-07 00:42:00,
2013-06-06 18:52:00,74.0,28.0,-100.00,East,87,11.0,14.0,17,-99.99,,,-99.99,,2013-06-07 00:52:00,
2013-06-06 19:02:00,75.0,28.0,-100.00,East,85,12.0,16.0,17,-99.99,,,-99.99,,2013-06-07 01:02:00,
2013-06-06 19:12:00,74.0,25.0,-100.00,ENE,71,11.0,16.0,15,-99.99,,,-99.99,,2013-06-07 01:12:00,
2013-06-06 19:21:00,73.0,28.0,-100.00,East,91,5.0,9.0,19,-99.99,,,-99.99,,2013-06-07 01:21:00,
2013-06-06 19:32:00,73.0,30.0,-100.00,East,80,6.0,8.0,20,-99.99,,,-99.99,,2013-06-07 01:32:00,
2013-06-06 19:42:00,73.0,30.0,-100.00,East,80,6.0,8.0,20,-99.99,,,-99.99,,2013-06-07 01:42:00,
2013-06-06 19:52:00,73.0,29.0,-100.00,NE,50,3.0,7.0,19,-99.99,,,-99.99,,2013-06-07 01:52:00,
2013-06-06 20:02:00,72.0,28.0,-100.00,NNE,25,3.0,4.0,18,-99.99,,,-99.99,,2013-06-07 02:02:00,
2013-06-06 20:12:00,72.0,28.0,-100.00,NNE,27,2.0,4.0,19,-99.99,,,-99.99,,2013-06-07 02:12:00,
2013-06-06 20:22:00,74.0,27.0,-100.00,North,7,3.0,3.0,17,-99.99,,,-99.99,,2013-06-07 02:22:00,
2013-06-06 20:32:00,72.0,28.0,-100.00,NNE,31,5.0,7.0,19,-99.99,,,-99.99,,2013-06-07 02:32:00,
2013-06-06 20:42:00,71.0,28.0,-100.00,NE,47,6.0,7.0,19,-99.99,,,-99.99,,2013-06-07 02:42:00,
2013-06-06 20:52:00,70.0,28.0,-100.00,NNE,14,5.0,8.0,21,-99.99,,,-99.99,,2013-06-07 02:52:00,
2013-06-06 21:02:00,69.0,28.0,-100.00,NNE,31,6.0,8.0,21,-99.99,,,-99.99,,2013-06-07 03:02:00,
2013-06-06 21:10:00,68.0,28.0,-100.00,NNE,30,7.0,9.0,21,-99.99,,,-99.99,,2013-06-07 03:10:00,
2013-06-06 21:12:00,68.0,28.0,-100.00,NNE,30,5.0,7.0,22,-99.99,,,-99.99,,2013-06-07 03:12:00,
2013-06-06 21:21:00,68.0,28.0,-100.00,NNE,31,4.0,6.0,22,-99.99,,,-99.99,,2013-06-07 03:21:00,
2013-06-06 21:32:00,68.0,28.0,-100.00,NNE,30,7.0,9.0,21,-99.99,,,-99.99,,2013-06-07 03:32:00,
2013-06-06 21:43:00,68.0,28.0,-100.00,NNE,30,7.0,9.0,21,-99.99,,,-99.99,,2013-06-07 03:43:00,
2013-06-06 21:53:00,68.0,28.0,-100.00,NNE,30,7.0,9.0,21,-99.99,,,-99.99,,2013-06-07 03:53:00,
2013-06-06 22:03:00,68.0,28.0,-100.00,NNE,30,7.0,9.0,21,-99.99,,,-99.99,,2013-06-07 04:03:00,